sensor_id;sensor_type;location;lat;lon;timestamp;pressure;altitude;pressure_sealevel;temperature;humidity
54503;BME280;40411;50.090;21.954;2023-12-04T00:01:18;65616.91;;;5.05;47.27
54503;BME280;40411;50.090;21.954;2023-12-04T00:03:45;65639.44;;;4.27;49.23
54503;BME280;40411;50.090;21.954;2023-12-04T00:06:11;65627.16;;;4.39;48.37
54503;BME280;40411;50.090;21.954;2023-12-04T00:08:38;65655.84;;;4.63;46.91
54503;BME280;40411;50.090;21.954;2023-12-04T00:11:07;65578.56;;;4.77;46.84
54503;BME280;40411;50.090;21.954;2023-12-04T00:13:33;65603.47;;;4.83;46.30
54503;BME280;40411;50.090;21.954;2023-12-04T00:15:59;65638.16;;;4.73;46.32
54503;BME280;40411;50.090;21.954;2023-12-04T00:18:25;65648.56;;;4.68;46.22
54503;BME280;40411;50.090;21.954;2023-12-04T00:20:51;65646.53;;;4.52;46.22
54503;BME280;40411;50.090;21.954;2023-12-04T00:23:18;65662.81;;;4.18;46.46
54503;BME280;40411;50.090;21.954;2023-12-04T00:25:43;65665.91;;;3.81;47.48
54503;BME280;40411;50.090;21.954;2023-12-04T00:28:09;65633.28;;;3.75;47.86
54503;BME280;40411;50.090;21.954;2023-12-04T00:30:35;65676.72;;;3.91;46.97
54503;BME280;40411;50.090;21.954;2023-12-04T00:33:01;65661.09;;;3.53;47.95
54503;BME280;40411;50.090;21.954;2023-12-04T00:35:26;65655.94;;;3.53;47.92
54503;BME280;40411;50.090;21.954;2023-12-04T00:37:52;65658.13;;;3.39;48.55
54503;BME280;40411;50.090;21.954;2023-12-04T00:40:18;65649.59;;;3.10;49.59
54503;BME280;40411;50.090;21.954;2023-12-04T00:42:44;65641.03;;;3.28;49.81
54503;BME280;40411;50.090;21.954;2023-12-04T00:45:10;65666.94;;;2.98;49.78
54503;BME280;40411;50.090;21.954;2023-12-04T00:47:36;65630.09;;;3.32;48.45
54503;BME280;40411;50.090;21.954;2023-12-04T00:50:01;65688.75;;;2.95;48.80
54503;BME280;40411;50.090;21.954;2023-12-04T00:52:27;65659.88;;;2.04;51.16
54503;BME280;40411;50.090;21.954;2023-12-04T00:54:53;65634.53;;;1.88;52.80
54503;BME280;40411;50.090;21.954;2023-12-04T00:57:19;65668.88;;;1.86;53.47
54503;BME280;40411;50.090;21.954;2023-12-04T00:59:46;65656.25;;;2.23;51.94
54503;BME280;40411;50.090;21.954;2023-12-04T01:02:12;65627.91;;;1.89;52.69
54503;BME280;40411;50.090;21.954;2023-12-04T01:04:41;65700.28;;;1.96;52.26
54503;BME280;40411;50.090;21.954;2023-12-04T01:07:09;65647.47;;;1.78;52.31
54503;BME280;40411;50.090;21.954;2023-12-04T01:09:36;65667.97;;;1.14;54.23
54503;BME280;40411;50.090;21.954;2023-12-04T01:12:02;65614.72;;;0.86;54.96
54503;BME280;40411;50.090;21.954;2023-12-04T01:14:28;65650.53;;;1.14;53.78
54503;BME280;40411;50.090;21.954;2023-12-04T01:16:54;65627.38;;;1.14;53.66
54503;BME280;40411;50.090;21.954;2023-12-04T01:19:20;65662.91;;;1.00;54.12
54503;BME280;40411;50.090;21.954;2023-12-04T01:21:46;65632.84;;;1.12;53.92
54503;BME280;40411;50.090;21.954;2023-12-04T01:24:11;65660.91;;;1.44;52.57
54503;BME280;40411;50.090;21.954;2023-12-04T01:26:37;65639.38;;;1.55;51.50
54503;BME280;40411;50.090;21.954;2023-12-04T01:29:03;65634.34;;;1.02;53.17
54503;BME280;40411;50.090;21.954;2023-12-04T01:31:29;65648.16;;;1.65;52.26
54503;BME280;40411;50.090;21.954;2023-12-04T01:33:55;65641.94;;;1.55;52.41
54503;BME280;40411;50.090;21.954;2023-12-04T01:36:21;65640.94;;;1.36;53.58
54503;BME280;40411;50.090;21.954;2023-12-04T01:38:47;65675.31;;;1.29;53.40
54503;BME280;40411;50.090;21.954;2023-12-04T01:41:13;65651.13;;;1.10;53.53
54503;BME280;40411;50.090;21.954;2023-12-04T01:43:39;65647.69;;;0.68;55.24
54503;BME280;40411;50.090;21.954;2023-12-04T01:46:05;65627.84;;;0.89;54.79
54503;BME280;40411;50.090;21.954;2023-12-04T01:48:32;65680.53;;;1.20;53.44
54503;BME280;40411;50.090;21.954;2023-12-04T01:51:00;65634.38;;;1.37;52.75
54503;BME280;40411;50.090;21.954;2023-12-04T01:53:28;65680.59;;;1.50;52.60
54503;BME280;40411;50.090;21.954;2023-12-04T01:55:54;65680.19;;;1.27;53.16
54503;BME280;40411;50.090;21.954;2023-12-04T01:58:20;65680.09;;;1.41;52.55
54503;BME280;40411;50.090;21.954;2023-12-04T02:00:47;65669.03;;;1.28;53.36
54503;BME280;40411;50.090;21.954;2023-12-04T02:03:13;65641.56;;;2.01;51.19
54503;BME280;40411;50.090;21.954;2023-12-04T02:05:40;65677.94;;;1.99;51.38
54503;BME280;40411;50.090;21.954;2023-12-04T02:08:06;65651.81;;;1.36;52.56
54503;BME280;40411;50.090;21.954;2023-12-04T02:10:32;65660.69;;;1.72;52.17
54503;BME280;40411;50.090;21.954;2023-12-04T02:12:58;65673.09;;;1.58;51.48
54503;BME280;40411;50.090;21.954;2023-12-04T02:15:24;65639.88;;;1.25;52.00
54503;BME280;40411;50.090;21.954;2023-12-04T02:17:50;65640.66;;;1.72;50.67
54503;BME280;40411;50.090;21.954;2023-12-04T02:20:16;65662.69;;;1.37;52.15
54503;BME280;40411;50.090;21.954;2023-12-04T02:22:42;65710.72;;;1.38;52.41
54503;BME280;40411;50.090;21.954;2023-12-04T02:25:09;65646.03;;;1.45;52.50
54503;BME280;40411;50.090;21.954;2023-12-04T02:27:50;65619.91;;;1.91;51.24
54503;BME280;40411;50.090;21.954;2023-12-04T02:30:18;65684.06;;;2.18;50.88
54503;BME280;40411;50.090;21.954;2023-12-04T02:32:46;65656.16;;;2.33;50.67
54503;BME280;40411;50.090;21.954;2023-12-04T02:35:14;65628.72;;;2.27;50.95
54503;BME280;40411;50.090;21.954;2023-12-04T02:37:42;65658.22;;;2.53;50.83
54503;BME280;40411;50.090;21.954;2023-12-04T02:40:10;65663.66;;;2.81;49.97
54503;BME280;40411;50.090;21.954;2023-12-04T02:42:36;65631.44;;;2.94;49.75
54503;BME280;40411;50.090;21.954;2023-12-04T02:45:02;65660.75;;;2.88;50.57
54503;BME280;40411;50.090;21.954;2023-12-04T02:47:28;65635.88;;;3.07;49.95
54503;BME280;40411;50.090;21.954;2023-12-04T02:49:54;65631.53;;;2.59;51.08
54503;BME280;40411;50.090;21.954;2023-12-04T02:52:20;65659.69;;;2.52;51.82
54503;BME280;40411;50.090;21.954;2023-12-04T02:54:46;65674.13;;;2.07;52.30
54503;BME280;40411;50.090;21.954;2023-12-04T02:57:12;65671.22;;;2.74;49.60
54503;BME280;40411;50.090;21.954;2023-12-04T02:59:38;65640.50;;;3.02;48.42
54503;BME280;40411;50.090;21.954;2023-12-04T03:02:03;65657.63;;;3.08;49.05
54503;BME280;40411;50.090;21.954;2023-12-04T03:04:30;65629.38;;;3.67;47.45
54503;BME280;40411;50.090;21.954;2023-12-04T03:06:56;65653.53;;;0.40;56.13
54503;BME280;40411;50.090;21.954;2023-12-04T03:09:22;65623.00;;;-0.24;60.22
54503;BME280;40411;50.090;21.954;2023-12-04T03:11:48;65601.34;;;-0.25;61.15
54503;BME280;40411;50.090;21.954;2023-12-04T03:14:14;65620.75;;;-0.35;62.06
54503;BME280;40411;50.090;21.954;2023-12-04T03:16:40;65645.88;;;-0.45;63.12
54503;BME280;40411;50.090;21.954;2023-12-04T03:19:06;65615.28;;;-1.42;67.43
54503;BME280;40411;50.090;21.954;2023-12-04T03:21:32;65627.78;;;-1.12;67.33
54503;BME280;40411;50.090;21.954;2023-12-04T03:23:58;65568.56;;;-1.19;68.39
54503;BME280;40411;50.090;21.954;2023-12-04T03:26:24;65569.13;;;-1.14;68.40
54503;BME280;40411;50.090;21.954;2023-12-04T03:28:49;65557.13;;;-0.97;67.61
54503;BME280;40411;50.090;21.954;2023-12-04T03:31:15;65601.56;;;-1.03;67.12
54503;BME280;40411;50.090;21.954;2023-12-04T03:33:41;65597.66;;;-1.53;68.93
54503;BME280;40411;50.090;21.954;2023-12-04T03:36:07;65606.75;;;1.23;59.72
54503;BME280;40411;50.090;21.954;2023-12-04T03:38:33;65642.28;;;1.83;56.78
54503;BME280;40411;50.090;21.954;2023-12-04T03:40:59;65619.91;;;1.91;55.40
54503;BME280;40411;50.090;21.954;2023-12-04T03:43:25;65630.38;;;2.33;54.00
54503;BME280;40411;50.090;21.954;2023-12-04T03:45:51;65662.69;;;2.06;53.54
54503;BME280;40411;50.090;21.954;2023-12-04T03:48:17;65620.13;;;1.63;54.83
54503;BME280;40411;50.090;21.954;2023-12-04T03:50:43;65652.84;;;1.86;53.85
54503;BME280;40411;50.090;21.954;2023-12-04T03:53:09;65629.06;;;1.55;54.59
54503;BME280;40411;50.090;21.954;2023-12-04T03:55:34;65614.78;;;1.86;53.35
54503;BME280;40411;50.090;21.954;2023-12-04T03:58:00;65672.66;;;1.78;53.46
54503;BME280;40411;50.090;21.954;2023-12-04T04:00:26;65670.09;;;1.39;54.44
54503;BME280;40411;50.090;21.954;2023-12-04T04:02:52;65665.41;;;1.53;54.60
54503;BME280;40411;50.090;21.954;2023-12-04T04:05:17;65622.84;;;1.79;53.35
54503;BME280;40411;50.090;21.954;2023-12-04T04:07:45;65630.19;;;1.91;53.14
54503;BME280;40411;50.090;21.954;2023-12-04T04:10:11;65647.88;;;1.97;52.73
54503;BME280;40411;50.090;21.954;2023-12-04T04:12:37;65617.59;;;2.23;51.37
54503;BME280;40411;50.090;21.954;2023-12-04T04:15:03;65626.09;;;2.01;52.13
54503;BME280;40411;50.090;21.954;2023-12-04T04:17:29;65635.63;;;1.93;52.06
54503;BME280;40411;50.090;21.954;2023-12-04T04:19:55;65682.69;;;2.10;51.09
54503;BME280;40411;50.090;21.954;2023-12-04T04:22:22;65689.19;;;1.49;53.46
54503;BME280;40411;50.090;21.954;2023-12-04T04:24:48;65633.34;;;1.22;55.38
54503;BME280;40411;50.090;21.954;2023-12-04T04:27:15;65669.97;;;1.57;54.15
54503;BME280;40411;50.090;21.954;2023-12-04T04:29:41;65602.66;;;1.33;54.84
54503;BME280;40411;50.090;21.954;2023-12-04T04:32:07;65637.88;;;1.65;55.22
54503;BME280;40411;50.090;21.954;2023-12-04T04:34:33;65622.56;;;2.12;53.77
54503;BME280;40411;50.090;21.954;2023-12-04T04:36:58;65640.09;;;2.37;53.48
54503;BME280;40411;50.090;21.954;2023-12-04T04:39:24;65667.28;;;2.06;53.64
54503;BME280;40411;50.090;21.954;2023-12-04T04:41:50;65629.47;;;3.16;51.46
54503;BME280;40411;50.090;21.954;2023-12-04T04:44:16;65652.25;;;2.50;52.25
54503;BME280;40411;50.090;21.954;2023-12-04T04:46:42;65648.97;;;2.63;52.04
54503;BME280;40411;50.090;21.954;2023-12-04T04:49:08;65626.06;;;2.61;52.51
54503;BME280;40411;50.090;21.954;2023-12-04T04:51:34;65621.47;;;0.00;60.48
54503;BME280;40411;50.090;21.954;2023-12-04T04:54:03;65619.59;;;-0.36;62.63
54503;BME280;40411;50.090;21.954;2023-12-04T04:56:29;65594.38;;;-0.84;64.83
54503;BME280;40411;50.090;21.954;2023-12-04T04:58:55;65606.59;;;-0.71;65.39
54503;BME280;40411;50.090;21.954;2023-12-04T05:01:22;65610.44;;;-0.26;62.19
54503;BME280;40411;50.090;21.954;2023-12-04T05:03:47;65583.31;;;-1.01;65.03
54503;BME280;40411;50.090;21.954;2023-12-04T05:06:14;65634.00;;;-0.93;64.95
54503;BME280;40411;50.090;21.954;2023-12-04T05:08:39;65603.91;;;-1.33;67.06
54503;BME280;40411;50.090;21.954;2023-12-04T05:11:05;65616.38;;;-0.95;66.11
54503;BME280;40411;50.090;21.954;2023-12-04T05:13:31;65563.88;;;-0.77;65.83
54503;BME280;40411;50.090;21.954;2023-12-04T05:15:57;65605.50;;;-0.81;66.02
54503;BME280;40411;50.090;21.954;2023-12-04T05:18:23;65604.59;;;-0.71;66.61
54503;BME280;40411;50.090;21.954;2023-12-04T05:20:48;65611.81;;;-1.03;66.33
54503;BME280;40411;50.090;21.954;2023-12-04T05:23:14;65581.56;;;-0.75;66.21
54503;BME280;40411;50.090;21.954;2023-12-04T05:25:40;65595.44;;;-0.51;65.02
54503;BME280;40411;50.090;21.954;2023-12-04T05:28:06;65616.88;;;-0.66;64.74
54503;BME280;40411;50.090;21.954;2023-12-04T05:30:32;65614.09;;;-1.01;67.08
54503;BME280;40411;50.090;21.954;2023-12-04T05:32:58;65594.97;;;1.94;57.98
54503;BME280;40411;50.090;21.954;2023-12-04T05:35:24;65629.44;;;2.09;55.14
54503;BME280;40411;50.090;21.954;2023-12-04T05:37:49;65617.25;;;2.26;54.72
54503;BME280;40411;50.090;21.954;2023-12-04T05:40:15;65606.97;;;-0.11;61.97
54503;BME280;40411;50.090;21.954;2023-12-04T05:42:41;65592.19;;;-0.29;63.73
54503;BME280;40411;50.090;21.954;2023-12-04T05:45:08;65605.16;;;-0.61;65.86
54503;BME280;40411;50.090;21.954;2023-12-04T05:47:34;65562.09;;;-0.56;65.84
54503;BME280;40411;50.090;21.954;2023-12-04T05:50:01;65611.28;;;-0.14;64.80
54503;BME280;40411;50.090;21.954;2023-12-04T05:52:26;65581.44;;;-0.48;65.05
54503;BME280;40411;50.090;21.954;2023-12-04T05:54:52;65620.88;;;-0.81;66.51
54503;BME280;40411;50.090;21.954;2023-12-04T05:57:18;65620.34;;;-0.96;67.62
54503;BME280;40411;50.090;21.954;2023-12-04T05:59:44;65592.34;;;-0.70;66.35
54503;BME280;40411;50.090;21.954;2023-12-04T06:02:10;65578.44;;;-0.80;66.07
54503;BME280;40411;50.090;21.954;2023-12-04T06:04:36;65551.31;;;-0.70;66.22
54503;BME280;40411;50.090;21.954;2023-12-04T06:07:01;65523.41;;;-0.77;66.67
54503;BME280;40411;50.090;21.954;2023-12-04T06:09:27;65628.00;;;1.79;57.54
54503;BME280;40411;50.090;21.954;2023-12-04T06:11:53;65621.38;;;2.15;55.19
54503;BME280;40411;50.090;21.954;2023-12-04T06:14:19;65621.50;;;2.32;55.04
54503;BME280;40411;50.090;21.954;2023-12-04T06:16:44;65640.06;;;1.76;56.53
54503;BME280;40411;50.090;21.954;2023-12-04T06:19:10;65606.13;;;1.27;57.91
54503;BME280;40411;50.090;21.954;2023-12-04T06:21:36;65597.56;;;1.89;57.11
54503;BME280;40411;50.090;21.954;2023-12-04T06:24:02;65620.88;;;2.36;54.57
54503;BME280;40411;50.090;21.954;2023-12-04T06:26:29;65620.50;;;2.73;53.53
54503;BME280;40411;50.090;21.954;2023-12-04T06:28:57;65623.75;;;2.08;54.46
54503;BME280;40411;50.090;21.954;2023-12-04T06:31:23;65579.88;;;1.87;55.45
54503;BME280;40411;50.090;21.954;2023-12-04T06:33:49;65634.94;;;1.72;55.34
54503;BME280;40411;50.090;21.954;2023-12-04T06:36:17;65622.00;;;2.11;54.52
54503;BME280;40411;50.090;21.954;2023-12-04T06:38:45;65622.53;;;1.51;56.35
54503;BME280;40411;50.090;21.954;2023-12-04T06:41:13;65557.38;;;2.04;55.00
54503;BME280;40411;50.090;21.954;2023-12-04T06:43:39;65608.38;;;1.99;55.09
54503;BME280;40411;50.090;21.954;2023-12-04T06:46:05;65627.81;;;2.58;53.32
54503;BME280;40411;50.090;21.954;2023-12-04T06:48:32;65643.34;;;2.23;54.05
54503;BME280;40411;50.090;21.954;2023-12-04T06:50:58;65614.91;;;2.33;53.78
54503;BME280;40411;50.090;21.954;2023-12-04T06:53:23;65605.09;;;2.12;54.29
54503;BME280;40411;50.090;21.954;2023-12-04T06:55:49;65597.88;;;2.17;54.00
54503;BME280;40411;50.090;21.954;2023-12-04T06:58:15;65610.06;;;2.00;55.06
54503;BME280;40411;50.090;21.954;2023-12-04T07:00:42;65633.50;;;2.03;54.35
54503;BME280;40411;50.090;21.954;2023-12-04T07:03:08;65611.91;;;2.44;53.86
54503;BME280;40411;50.090;21.954;2023-12-04T07:05:34;65624.13;;;3.29;51.55
54503;BME280;40411;50.090;21.954;2023-12-04T07:08:00;65634.88;;;2.41;53.60
54503;BME280;40411;50.090;21.954;2023-12-04T07:10:25;65598.47;;;2.69;52.94
54503;BME280;40411;50.090;21.954;2023-12-04T07:12:51;65618.16;;;1.94;54.02
54503;BME280;40411;50.090;21.954;2023-12-04T07:15:17;65641.66;;;2.22;53.87
54503;BME280;40411;50.090;21.954;2023-12-04T07:17:43;65623.59;;;2.78;52.42
54503;BME280;40411;50.090;21.954;2023-12-04T07:20:09;65620.06;;;2.84;51.78
54503;BME280;40411;50.090;21.954;2023-12-04T07:22:37;65579.34;;;2.38;52.69
54503;BME280;40411;50.090;21.954;2023-12-04T07:25:03;65622.88;;;2.10;53.61
54503;BME280;40411;50.090;21.954;2023-12-04T07:27:29;65628.97;;;1.99;53.89
54503;BME280;40411;50.090;21.954;2023-12-04T07:29:54;65630.50;;;2.49;53.24
54503;BME280;40411;50.090;21.954;2023-12-04T07:32:20;65631.56;;;2.55;53.10
54503;BME280;40411;50.090;21.954;2023-12-04T07:34:46;65624.50;;;2.20;53.50
54503;BME280;40411;50.090;21.954;2023-12-04T07:37:12;65559.94;;;2.04;53.17
54503;BME280;40411;50.090;21.954;2023-12-04T07:39:38;65618.44;;;2.52;53.76
54503;BME280;40411;50.090;21.954;2023-12-04T07:42:04;65626.13;;;3.29;50.91
54503;BME280;40411;50.090;21.954;2023-12-04T07:44:30;65610.19;;;3.19;50.92
54503;BME280;40411;50.090;21.954;2023-12-04T07:46:56;65606.31;;;3.32;49.99
54503;BME280;40411;50.090;21.954;2023-12-04T07:49:23;65620.84;;;2.91;51.80
54503;BME280;40411;50.090;21.954;2023-12-04T07:51:48;65592.69;;;3.20;50.49
54503;BME280;40411;50.090;21.954;2023-12-04T07:54:14;65596.00;;;2.34;52.81
54503;BME280;40411;50.090;21.954;2023-12-04T07:56:40;65589.41;;;3.28;50.91
54503;BME280;40411;50.090;21.954;2023-12-04T07:59:06;65577.84;;;3.57;49.49
54503;BME280;40411;50.090;21.954;2023-12-04T08:01:31;65630.69;;;2.56;51.75
54503;BME280;40411;50.090;21.954;2023-12-04T08:03:57;65559.56;;;3.08;50.72
54503;BME280;40411;50.090;21.954;2023-12-04T08:06:23;65607.38;;;2.91;51.71
54503;BME280;40411;50.090;21.954;2023-12-04T08:08:49;65598.94;;;2.79;51.81
54503;BME280;40411;50.090;21.954;2023-12-04T08:11:15;65597.28;;;3.19;50.16
54503;BME280;40411;50.090;21.954;2023-12-04T08:13:41;65615.63;;;3.43;49.44
54503;BME280;40411;50.090;21.954;2023-12-04T08:16:13;65603.75;;;3.06;50.63
54503;BME280;40411;50.090;21.954;2023-12-04T08:18:41;65597.19;;;3.49;49.69
54503;BME280;40411;50.090;21.954;2023-12-04T08:21:07;65600.75;;;3.39;49.50
54503;BME280;40411;50.090;21.954;2023-12-04T08:23:33;65589.91;;;3.12;49.67
54503;BME280;40411;50.090;21.954;2023-12-04T08:25:59;65608.31;;;3.94;48.39
54503;BME280;40411;50.090;21.954;2023-12-04T08:28:25;65584.56;;;4.27;47.92
54503;BME280;40411;50.090;21.954;2023-12-04T08:30:51;65598.66;;;4.44;46.62
54503;BME280;40411;50.090;21.954;2023-12-04T08:33:17;65535.50;;;5.20;45.46
54503;BME280;40411;50.090;21.954;2023-12-04T08:35:46;65567.13;;;5.81;44.21
54503;BME280;40411;50.090;21.954;2023-12-04T08:38:13;65555.75;;;6.04;43.07
54503;BME280;40411;50.090;21.954;2023-12-04T08:40:38;65534.34;;;6.48;42.68
54503;BME280;40411;50.090;21.954;2023-12-04T08:43:05;65553.41;;;5.62;43.80
54503;BME280;40411;50.090;21.954;2023-12-04T08:45:31;65513.81;;;6.51;42.59
54503;BME280;40411;50.090;21.954;2023-12-04T08:47:57;65552.34;;;6.01;42.53
54503;BME280;40411;50.090;21.954;2023-12-04T08:50:23;65549.38;;;5.91;42.67
54503;BME280;40411;50.090;21.954;2023-12-04T08:52:51;65581.63;;;5.15;43.37
54503;BME280;40411;50.090;21.954;2023-12-04T08:55:17;65545.19;;;5.85;43.08
54503;BME280;40411;50.090;21.954;2023-12-04T08:57:43;65528.97;;;6.17;42.36
54503;BME280;40411;50.090;21.954;2023-12-04T09:00:09;65529.13;;;6.36;41.66
54503;BME280;40411;50.090;21.954;2023-12-04T09:02:35;65516.75;;;6.09;42.53
54503;BME280;40411;50.090;21.954;2023-12-04T09:05:01;65558.81;;;6.89;41.22
54503;BME280;40411;50.090;21.954;2023-12-04T09:07:27;65543.03;;;5.90;42.22
54503;BME280;40411;50.090;21.954;2023-12-04T09:09:53;65540.44;;;6.07;42.14
54503;BME280;40411;50.090;21.954;2023-12-04T09:12:19;65512.53;;;5.91;42.61
54503;BME280;40411;50.090;21.954;2023-12-04T09:14:45;65462.16;;;7.47;40.72
54503;BME280;40411;50.090;21.954;2023-12-04T09:17:11;65521.28;;;6.64;40.05
54503;BME280;40411;50.090;21.954;2023-12-04T09:19:37;65445.69;;;7.91;38.13
54503;BME280;40411;50.090;21.954;2023-12-04T09:22:03;65374.78;;;9.39;36.98
54503;BME280;40411;50.090;21.954;2023-12-04T09:24:28;65352.03;;;10.47;34.29
54503;BME280;40411;50.090;21.954;2023-12-04T09:26:56;65358.25;;;9.74;35.32
54503;BME280;40411;50.090;21.954;2023-12-04T09:29:22;65409.50;;;9.12;36.22
54503;BME280;40411;50.090;21.954;2023-12-04T09:31:53;65335.19;;;10.05;35.16
54503;BME280;40411;50.090;21.954;2023-12-04T09:34:19;65351.31;;;9.39;35.63
54503;BME280;40411;50.090;21.954;2023-12-04T09:36:46;65326.22;;;10.04;35.04
54503;BME280;40411;50.090;21.954;2023-12-04T09:39:13;65279.56;;;10.62;34.61
54503;BME280;40411;50.090;21.954;2023-12-04T09:41:41;65311.00;;;10.50;34.21
54503;BME280;40411;50.090;21.954;2023-12-04T09:44:08;65274.47;;;11.19;34.43
54503;BME280;40411;50.090;21.954;2023-12-04T09:46:34;65344.84;;;10.02;34.89
54503;BME280;40411;50.090;21.954;2023-12-04T09:49:00;65351.19;;;10.29;34.79
54503;BME280;40411;50.090;21.954;2023-12-04T09:51:27;65271.63;;;10.95;34.86
54503;BME280;40411;50.090;21.954;2023-12-04T09:53:53;65337.09;;;10.17;35.42
54503;BME280;40411;50.090;21.954;2023-12-04T09:56:22;65436.47;;;9.48;35.66
54503;BME280;40411;50.090;21.954;2023-12-04T09:58:52;65357.81;;;10.14;36.17
54503;BME280;40411;50.090;21.954;2023-12-04T10:01:19;65423.34;;;9.60;35.57
54503;BME280;40411;50.090;21.954;2023-12-04T10:03:45;65323.59;;;10.71;34.68
54503;BME280;40411;50.090;21.954;2023-12-04T10:06:15;65356.13;;;10.46;34.98
54503;BME280;40411;50.090;21.954;2023-12-04T10:08:45;65356.97;;;10.30;34.48
54503;BME280;40411;50.090;21.954;2023-12-04T10:11:12;65393.50;;;10.04;35.59
54503;BME280;40411;50.090;21.954;2023-12-04T10:13:40;65322.53;;;10.44;35.51
54503;BME280;40411;50.090;21.954;2023-12-04T10:16:07;65322.03;;;10.98;33.89
54503;BME280;40411;50.090;21.954;2023-12-04T10:18:33;65336.31;;;11.28;32.98
54503;BME280;40411;50.090;21.954;2023-12-04T10:20:59;65297.38;;;10.97;33.71
54503;BME280;40411;50.090;21.954;2023-12-04T10:23:42;65339.31;;;10.78;34.15
54503;BME280;40411;50.090;21.954;2023-12-04T10:26:09;65478.53;;;9.27;36.46
54503;BME280;40411;50.090;21.954;2023-12-04T10:28:35;65434.34;;;9.42;36.35
54503;BME280;40411;50.090;21.954;2023-12-04T10:31:02;65339.56;;;10.47;35.15
54503;BME280;40411;50.090;21.954;2023-12-04T10:33:31;65413.44;;;9.79;35.30
54503;BME280;40411;50.090;21.954;2023-12-04T10:35:57;65407.53;;;9.83;35.81
54503;BME280;40411;50.090;21.954;2023-12-04T10:38:23;65469.38;;;9.43;36.35
54503;BME280;40411;50.090;21.954;2023-12-04T10:40:49;65403.88;;;9.97;35.46
54503;BME280;40411;50.090;21.954;2023-12-04T10:43:17;65451.69;;;9.62;34.22
54503;BME280;40411;50.090;21.954;2023-12-04T10:45:45;65419.22;;;9.80;35.90
54503;BME280;40411;50.090;21.954;2023-12-04T10:48:12;65418.53;;;10.10;36.29
54503;BME280;40411;50.090;21.954;2023-12-04T10:50:40;65424.34;;;9.92;35.69
54503;BME280;40411;50.090;21.954;2023-12-04T10:53:10;65318.75;;;10.69;34.95
54503;BME280;40411;50.090;21.954;2023-12-04T10:55:37;65335.78;;;10.80;34.10
54503;BME280;40411;50.090;21.954;2023-12-04T10:58:05;65424.97;;;9.73;35.29
54503;BME280;40411;50.090;21.954;2023-12-04T11:00:37;65438.41;;;9.78;35.69
54503;BME280;40411;50.090;21.954;2023-12-04T11:03:18;65393.50;;;10.04;36.03
54503;BME280;40411;50.090;21.954;2023-12-04T11:05:48;65461.22;;;9.45;35.80
54503;BME280;40411;50.090;21.954;2023-12-04T11:08:17;65388.78;;;10.23;34.75
54503;BME280;40411;50.090;21.954;2023-12-04T11:10:56;65359.50;;;10.49;34.41
54503;BME280;40411;50.090;21.954;2023-12-04T11:13:27;65381.97;;;10.62;34.29
54503;BME280;40411;50.090;21.954;2023-12-04T11:16:01;65344.97;;;10.98;33.98
54503;BME280;40411;50.090;21.954;2023-12-04T11:18:31;65464.63;;;9.74;35.35
54503;BME280;40411;50.090;21.954;2023-12-04T11:20:59;65535.03;;;8.86;35.71
54503;BME280;40411;50.090;21.954;2023-12-04T11:23:29;65566.31;;;7.38;38.65
54503;BME280;40411;50.090;21.954;2023-12-04T11:25:57;65450.56;;;9.04;37.37
54503;BME280;40411;50.090;21.954;2023-12-04T11:28:24;65505.31;;;8.92;37.66
54503;BME280;40411;50.090;21.954;2023-12-04T11:30:51;65516.53;;;8.95;36.67
54503;BME280;40411;50.090;21.954;2023-12-04T11:33:18;65473.81;;;9.39;36.97
54503;BME280;40411;50.090;21.954;2023-12-04T11:35:44;65494.69;;;8.90;37.07
54503;BME280;40411;50.090;21.954;2023-12-04T11:38:13;65488.59;;;9.29;36.89
54503;BME280;40411;50.090;21.954;2023-12-04T11:40:41;65483.72;;;8.89;37.36
54503;BME280;40411;50.090;21.954;2023-12-04T11:43:21;65507.41;;;7.95;38.51
54503;BME280;40411;50.090;21.954;2023-12-04T11:45:48;65502.78;;;9.00;37.26
54503;BME280;40411;50.090;21.954;2023-12-04T11:48:15;65501.41;;;8.77;37.31
54503;BME280;40411;50.090;21.954;2023-12-04T11:50:43;65540.41;;;8.04;37.92
54503;BME280;40411;50.090;21.954;2023-12-04T11:53:10;65543.53;;;8.28;38.58
54503;BME280;40411;50.090;21.954;2023-12-04T11:55:40;65543.81;;;7.95;38.65
54503;BME280;40411;50.090;21.954;2023-12-04T11:58:10;65517.03;;;8.46;38.62
54503;BME280;40411;50.090;21.954;2023-12-04T12:00:36;65553.31;;;7.85;38.91
54503;BME280;40411;50.090;21.954;2023-12-04T12:03:07;65551.03;;;6.89;40.79
54503;BME280;40411;50.090;21.954;2023-12-04T12:05:36;65550.38;;;7.16;40.11
54503;BME280;40411;50.090;21.954;2023-12-04T12:08:05;65502.41;;;8.10;39.26
54503;BME280;40411;50.090;21.954;2023-12-04T12:10:32;65509.06;;;8.63;38.50
54503;BME280;40411;50.090;21.954;2023-12-04T12:12:58;65517.28;;;7.48;39.78
54503;BME280;40411;50.090;21.954;2023-12-04T12:15:24;65582.56;;;7.22;39.99
54503;BME280;40411;50.090;21.954;2023-12-04T12:17:51;65554.56;;;7.46;40.74
54503;BME280;40411;50.090;21.954;2023-12-04T12:20:17;65560.41;;;7.07;41.26
54503;BME280;40411;50.090;21.954;2023-12-04T12:22:43;65579.19;;;6.28;42.49
54503;BME280;40411;50.090;21.954;2023-12-04T12:25:10;65544.50;;;6.97;41.66
54503;BME280;40411;50.090;21.954;2023-12-04T12:27:37;65551.13;;;6.84;41.57
54503;BME280;40411;50.090;21.954;2023-12-04T12:30:04;65549.69;;;7.21;40.96
54503;BME280;40411;50.090;21.954;2023-12-04T12:32:33;65479.56;;;7.98;40.39
54503;BME280;40411;50.090;21.954;2023-12-04T12:35:00;65450.81;;;8.76;38.18
54503;BME280;40411;50.090;21.954;2023-12-04T12:37:25;65522.34;;;8.54;38.65
54503;BME280;40411;50.090;21.954;2023-12-04T12:39:52;65396.34;;;8.98;38.74
54503;BME280;40411;50.090;21.954;2023-12-04T12:42:22;65510.63;;;8.26;39.24
54503;BME280;40411;50.090;21.954;2023-12-04T12:44:48;65479.16;;;8.24;39.28
54503;BME280;40411;50.090;21.954;2023-12-04T12:47:15;65509.41;;;8.61;38.80
54503;BME280;40411;50.090;21.954;2023-12-04T12:49:41;65499.53;;;8.31;39.51
54503;BME280;40411;50.090;21.954;2023-12-04T12:52:06;65571.06;;;7.92;40.16
54503;BME280;40411;50.090;21.954;2023-12-04T12:54:37;65578.88;;;7.56;41.04